Mesa.AZweather.com - Mesa, AZ
   Red Mountain Frwy and University Dr., El 1518 ft.
       --- Thursday  June 4, 2020 ---
 
 High Temperature ..  111F at 15:34
 Low Temperature ...  78F at 03:14
 
 High Humidity .....  31% at 06:04
 Low Humidity ......  10% at 15:51
 
 High Barometer ....  29.85 at 07:33
 Low Barometer .....  29.67 at 17:55
 
 High Dew Point ....  50F at 07:24
 Low Dew Point .....  39F at 16:19
 
 Rainfall Total ....  0.00 in.
 
 High Wind Speed ...  ---
                     
 
 Time   Temp  Humi  Rain     Baro  DewPt  Wind
00:00,  83F, 25%, 0.00 in, 29.79, 43F, ---
00:30,  83F, 25%, 0.00 in, 29.78, 43F, ---
01:00,  83F, 25%, 0.00 in, 29.78, 43F, ---
01:30,  81F, 27%, 0.00 in, 29.78, 44F, ---
02:00,  81F, 26%, 0.00 in, 29.79, 43F, ---
02:30,  80F, 26%, 0.00 in, 29.79, 43F, ---
03:00,  79F, 27%, 0.00 in, 29.80, 42F, ---
03:30,  79F, 27%, 0.00 in, 29.79, 42F, ---
04:00,  79F, 26%, 0.00 in, 29.80, 41F, ---
04:30,  78F, 27%, 0.00 in, 29.80, 42F, ---
05:00,  78F, 28%, 0.00 in, 29.80, 43F, ---
05:30,  78F, 29%, 0.00 in, 29.81, 44F, ---
06:00,  78F, 30%, 0.00 in, 29.82, 45F, ---
06:30,  80F, 31%, 0.00 in, 29.83, 47F, ---
07:00,  83F, 30%, 0.00 in, 29.83, 48F, ---
07:30,  88F, 26%, 0.00 in, 29.84, 49F, ---
08:00,  91F, 23%, 0.00 in, 29.84, 48F, ---
08:30,  94F, 20%, 0.00 in, 29.84, 46F, ---
09:00,  95F, 18%, 0.00 in, 29.84, 45F, ---
09:30,  96F, 18%, 0.00 in, 29.84, 46F, ---
10:00,  97F, 17%, 0.00 in, 29.84, 45F, ---
10:30,  98F, 16%, 0.00 in, 29.83, 45F, ---
11:00,  100F, 16%, 0.00 in, 29.83, 46F, ---
11:30,  102F, 16%, 0.00 in, 29.83, 48F, ---
12:00,  103F, 15%, 0.00 in, 29.81, 46F, ---
12:30,  104F, 14%, 0.00 in, 29.80, 45F, ---
13:00,  105F, 13%, 0.00 in, 29.78, 45F, ---
13:30,  106F, 13%, 0.00 in, 29.77, 45F, ---
14:00,  106F, 13%, 0.00 in, 29.76, 45F, ---
14:30,  108F, 12%, 0.00 in, 29.75, 44F, ---
15:00,  108F, 11%, 0.00 in, 29.73, 42F, ---
15:30,  110F, 11%, 0.00 in, 29.72, 43F, ---
16:00,  110F, 10%, 0.00 in, 29.71, 41F, ---
16:30,  108F, 10%, 0.00 in, 29.70, 39F, ---
17:00,  107F, 11%, 0.00 in, 29.69, 42F, ---
17:30,  106F, 11%, 0.00 in, 29.69, 41F, ---
18:00,  106F, 11%, 0.00 in, 29.68, 41F, ---
18:30,  106F, 11%, 0.00 in, 29.67, 41F, ---
19:00,  104F, 12%, 0.00 in, 29.68, 41F, ---
19:30,  101F, 14%, 0.00 in, 29.68, 43F, ---
20:00,  97F, 16%, 0.00 in, 29.68, 43F, ---
20:30,  94F, 19%, 0.00 in, 29.68, 45F, ---
21:00,  93F, 21%, 0.00 in, 29.70, 47F, ---
21:30,  92F, 23%, 0.00 in, 29.70, 48F, ---
22:00,  91F, 24%, 0.00 in, 29.71, 50F, ---
22:30,  91F, 23%, 0.00 in, 29.73, 48F, ---
23:00,  93F, 19%, 0.00 in, 29.73, 45F, ---
23:30,  94F, 18%, 0.00 in, 29.72, 43F, ---
23:59,  93F, 18%, 0.00 in, 29.73, 43F, ---